Archival Weather

Aeroparque Jorge Newbery

Buenos Aires, Argentina (SABE)

Report from: Thursday, February 22, 2024 7:00 PM -03
Current time: Monday, June 24, 2024 7:34 AM -03

Current weather – Weather history – Daily summaries
Weather forecast

Temperature27.0°C (80.6°F)
Heat index29.3°C (84.8°F)
Dew point22.0°C (71.6°F)
Winds 11 kts (5.7 m/s, 12.7 mph) East-Southeast (110°)
Clouds Sky clear
Altimeter29.71 in.Hg (1006 mB)
Relative humidity74 %
Density altitude1,984 ft. (605 m)
Remarks Ceiling and visibility OK
No significant changes expected in the next two hours
Flight conditions Visual Meteorological Conditions
Raw dataSABE 222200Z 11011KT CAVOK 27/22 Q1006 NOSIG
An error has occurred. This application may no longer respond until reloaded. Reload 🗙